Strona główna
METAR-TAF:

METAR-TAF

Lotnisko :

Ramstein Air Base

Ramstein, Niemcy

Szerokość geograficzna: 49-26N, Długość geograficzna: 007-36E, wysokość: 238 m

Aktualna obserwacja pogody

Raport powstał 30 minut temu, godzina 18:56 UTC
Wiatr 5 kt od zachodnio-północny zachód
Temperatura 25°C
Wilgotność 44%
Ciśnienie 1022 hPa
Widzialność 10 km lub więcej
bezchmurnie

METAR: ETAR 211856Z AUTO 30005KT 9999 CLR 25/12 A3018 RMK AO2 SLP213 T02480117

czas: 21:26 (19:26 UTC)

Prognoza

Raport powstał 1 godzina i 21 minut temu, godzina 18:05 UTC
Prognoza ważna od 21 godzina 18 UTC do 22 godzina 24 UTC
Wiatr 6 kt z kierunków zmiennych
Widzialność 10 km lub więcej
Mało chmury na wysokości 6000 ft

TAF: ETAR 211805Z 2118/2224 VRB06KT 9999 FEW060 QNH3015INS TX28/2214Z TN14/2204Z

Obserwacja i prognoza pogody dla ponad 4000 lotnisk (raport METAR i TAF).

Dostępne stacje oznaczono żółtymi i czerwonymi punktami na mapie.

Najedź kursorem aby zobaczyć nazwę stacji.

Kliknij aby zobaczyć obserwacje i prognozy pogody.

Aby zmienić mapę: kliknij na zielony przycisk z czarnym krzyżykiem, aby powiększyć; na zielony przycisk z myślnikiem, aby pomniejszyć; na zielone strzałki, aby przejść do map sąsiednich.


METAR-TAF: